Time;durP1;ratioP1;P1;durP2;ratioP2;P2;SDS_P1;SDS_P2;PMS_P1;PMS_P2;Temp;Humidity;BMP_temperature;BMP_pressure;BME280_temperature;BME280_humidity;BME280_pressure;Samples;Min_cycle;Max_cycle;Signal;HPM_P1;HPM_P2
2021/05/08 00:02:18;;;;;;;0.60;0.60;;;21.60;51.90;;;;;;5101253;28;20031;-41
2021/05/08 00:04:43;;;;;;;0.52;0.52;;;21.70;52.60;;;;;;5104244;28;20107;-41
2021/05/08 00:07:09;;;;;;;0.60;0.50;;;21.80;52.20;;;;;;5105659;28;20039;-39
2021/05/08 00:09:34;;;;;;;0.57;0.57;;;21.60;51.80;;;;;;5104374;28;20473;-40
2021/05/08 00:12:00;;;;;;;1.30;0.60;;;21.60;51.80;;;;;;5102712;28;20034;-42
2021/05/08 00:14:26;;;;;;;0.50;0.50;;;21.60;51.80;;;;;;5102438;28;20385;-43
2021/05/08 00:16:52;;;;;;;0.70;0.70;;;21.60;51.80;;;;;;5102127;28;20108;-39
2021/05/08 00:19:18;;;;;;;0.98;0.52;;;21.50;52.00;;;;;;5104630;28;20027;-40
2021/05/08 00:21:44;;;;;;;0.50;0.50;;;21.60;52.00;;;;;;5103891;28;20432;-42
2021/05/08 00:24:09;;;;;;;1.08;0.60;;;21.50;52.00;;;;;;5104299;28;20020;-42
2021/05/08 00:26:35;;;;;;;0.65;0.60;;;21.60;51.80;;;;;;5103099;28;20528;-42
2021/05/08 00:29:01;;;;;;;0.52;0.50;;;21.60;51.80;;;;;;5102029;28;20657;-42
2021/05/08 00:31:27;;;;;;;0.65;0.50;;;21.60;52.00;;;;;;5104498;28;20099;-41
2021/05/08 00:33:52;;;;;;;0.50;0.50;;;21.60;52.00;;;;;;5103930;28;20022;-41
2021/05/08 00:36:18;;;;;;;0.43;0.40;;;21.50;52.10;;;;;;5104626;28;20024;-39
2021/05/08 00:38:44;;;;;;;0.63;0.50;;;21.40;52.20;;;;;;5103001;28;20055;-39
2021/05/08 00:41:09;;;;;;;0.50;0.50;;;21.40;52.30;;;;;;5083384;28;20390;-40
2021/05/08 00:43:35;;;;;;;0.43;0.43;;;21.40;52.70;;;;;;5103776;28;20051;-44
2021/05/08 00:46:00;;;;;;;0.47;0.47;;;21.30;52.60;;;;;;5103153;28;20073;-42
2021/05/08 00:48:27;;;;;;;0.55;0.50;;;21.50;52.20;;;;;;5104092;28;20049;-37
2021/05/08 00:50:57;;;;;;;0.50;0.50;;;21.50;52.10;;;;;;5082598;28;20489;-41
2021/05/08 00:53:22;;;;;;;0.50;0.50;;;21.50;52.10;;;;;;5082871;28;20039;-45
2021/05/08 00:55:48;;;;;;;0.80;0.50;;;21.60;51.90;;;;;;5104022;28;20024;-41
2021/05/08 00:58:13;;;;;;;0.50;0.50;;;21.60;52.60;;;;;;5103865;28;20019;-42
2021/05/08 01:00:39;;;;;;;0.82;0.55;;;21.50;52.90;;;;;;5103735;28;20073;-43
2021/05/08 01:03:06;;;;;;;0.50;0.50;;;21.50;52.80;;;;;;5100611;28;20568;-37
2021/05/08 01:05:34;;;;;;;0.50;0.50;;;21.40;52.40;;;;;;5103592;28;20024;-37
2021/05/08 01:08:03;;;;;;;0.60;0.60;;;21.30;52.60;;;;;;5101806;28;20108;-42
2021/05/08 01:10:29;;;;;;;0.70;0.50;;;21.40;52.30;;;;;;5102774;28;20449;-43
2021/05/08 01:12:59;;;;;;;0.77;0.50;;;21.40;52.50;;;;;;5100516;28;20028;-43
2021/05/08 01:15:24;;;;;;;0.63;0.50;;;21.30;52.50;;;;;;5104273;28;20024;-40
2021/05/08 01:17:50;;;;;;;0.50;0.50;;;21.50;52.80;;;;;;5102145;28;20435;-39
2021/05/08 01:20:16;;;;;;;0.60;0.60;;;21.40;52.30;;;;;;5083275;28;20031;-44
2021/05/08 01:22:41;;;;;;;0.90;0.50;;;21.40;52.30;;;;;;5084761;28;20406;-41
2021/05/08 01:25:09;;;;;;;0.50;0.50;;;21.40;52.30;;;;;;5102451;28;20413;-40
2021/05/08 01:27:42;;;;;;;0.50;0.50;;;21.40;52.40;;;;;;5081005;28;20067;-42
2021/05/08 01:30:08;;;;;;;0.50;0.47;;;21.20;52.70;;;;;;5107293;28;20037;-38
2021/05/08 01:32:34;;;;;;;3.22;0.52;;;21.30;52.60;;;;;;5104851;28;20034;-40
2021/05/08 01:34:59;;;;;;;0.90;0.50;;;21.30;52.60;;;;;;5104886;28;20099;-42
2021/05/08 01:37:25;;;;;;;0.60;0.43;;;21.30;52.70;;;;;;5108071;28;20097;-42
2021/05/08 01:39:50;;;;;;;0.50;0.50;;;21.30;52.60;;;;;;5107826;28;20520;-40
2021/05/08 01:42:16;;;;;;;0.90;0.60;;;21.40;52.60;;;;;;5107170;28;20110;-42
2021/05/08 01:44:42;;;;;;;0.55;0.40;;;21.40;52.50;;;;;;5104958;28;20023;-42
2021/05/08 01:47:07;;;;;;;0.85;0.50;;;21.40;52.50;;;;;;5104937;28;20032;-38
2021/05/08 01:49:33;;;;;;;0.55;0.55;;;21.20;52.80;;;;;;5108284;28;20517;-36
2021/05/08 01:51:58;;;;;;;0.50;0.50;;;21.30;52.70;;;;;;5085920;28;20032;-42
2021/05/08 01:54:24;;;;;;;0.70;0.50;;;21.20;52.90;;;;;;5106817;28;20030;-41
2021/05/08 01:56:49;;;;;;;0.60;0.60;;;21.10;53.00;;;;;;5106400;28;20114;-40
2021/05/08 01:59:15;;;;;;;0.80;0.50;;;21.20;52.70;;;;;;5104167;28;20045;-41
2021/05/08 02:01:40;;;;;;;0.50;0.40;;;21.20;53.40;;;;;;5087171;28;20022;-38
2021/05/08 02:04:09;;;;;;;1.05;0.68;;;21.30;52.80;;;;;;5103938;28;20076;-41
2021/05/08 02:06:35;;;;;;;1.00;0.50;;;21.30;52.70;;;;;;5108082;28;20040;-40
2021/05/08 02:09:00;;;;;;;0.60;0.60;;;21.30;53.40;;;;;;5068293;28;20077;-43
2021/05/08 02:11:26;;;;;;;0.80;0.80;;;21.20;52.90;;;;;;5105781;28;20489;-43
2021/05/08 02:13:51;;;;;;;0.80;0.60;;;21.20;53.50;;;;;;5091990;28;20520;-39
2021/05/08 02:16:17;;;;;;;1.30;0.63;;;21.20;53.00;;;;;;5106041;28;20054;-44
2021/05/08 02:18:42;;;;;;;0.50;0.50;;;21.30;53.40;;;;;;5106342;28;20081;-40
2021/05/08 02:21:08;;;;;;;0.50;0.50;;;21.30;52.80;;;;;;5106981;28;20059;-42
2021/05/08 02:23:34;;;;;;;0.47;0.47;;;21.30;52.80;;;;;;5103953;28;20035;-41
2021/05/08 02:25:59;;;;;;;0.50;0.50;;;21.20;53.10;;;;;;5104019;28;20031;-42
2021/05/08 02:28:25;;;;;;;0.70;0.60;;;21.20;53.00;;;;;;5107262;28;20062;-42
2021/05/08 02:30:50;;;;;;;0.30;0.30;;;21.30;52.80;;;;;;5105843;28;20026;-42
2021/05/08 02:33:16;;;;;;;0.65;0.60;;;21.40;52.50;;;;;;5106791;28;20032;-40
2021/05/08 02:35:42;;;;;;;0.85;0.60;;;21.40;52.50;;;;;;5103104;28;20023;-40
2021/05/08 02:38:07;;;;;;;0.45;0.45;;;21.50;53.00;;;;;;5104005;28;20533;-41
2021/05/08 02:40:35;;;;;;;0.57;0.57;;;21.50;52.20;;;;;;5106519;28;20092;-40
2021/05/08 02:43:02;;;;;;;0.90;0.60;;;21.50;52.20;;;;;;5106268;28;20031;-45
2021/05/08 02:45:27;;;;;;;3.22;0.70;;;21.40;53.40;;;;;;5104892;28;20452;-42
2021/05/08 02:47:53;;;;;;;0.50;0.50;;;21.30;52.80;;;;;;5106297;28;20039;-44
2021/05/08 02:50:19;;;;;;;0.88;0.60;;;21.30;52.90;;;;;;5103733;28;20553;-39
2021/05/08 02:52:45;;;;;;;0.70;0.55;;;21.20;53.00;;;;;;5106584;28;20047;-42
2021/05/08 02:55:11;;;;;;;0.70;0.70;;;21.30;53.10;;;;;;5104195;28;20399;-42
2021/05/08 02:57:37;;;;;;;0.60;0.60;;;21.20;53.00;;;;;;5085162;28;20064;-40
2021/05/08 03:00:04;;;;;;;0.73;0.63;;;21.30;52.90;;;;;;5104384;28;20012;-39
2021/05/08 03:02:30;;;;;;;0.80;0.80;;;21.30;52.90;;;;;;5105008;28;20024;-39
2021/05/08 03:04:56;;;;;;;0.52;0.40;;;21.30;53.00;;;;;;5102402;28;20012;-44
2021/05/08 03:07:21;;;;;;;0.77;0.55;;;21.30;53.00;;;;;;5106696;28;20469;-39
2021/05/08 03:09:47;;;;;;;1.55;0.80;;;21.30;53.40;;;;;;5105839;28;20019;-42
2021/05/08 03:12:12;;;;;;;0.90;0.63;;;21.40;52.80;;;;;;5106378;28;20375;-42
2021/05/08 03:14:38;;;;;;;0.77;0.65;;;21.30;52.90;;;;;;5104113;28;20027;-43
2021/05/08 03:17:04;;;;;;;0.95;0.73;;;21.40;52.60;;;;;;5104069;28;20030;-42
2021/05/08 03:19:30;;;;;;;1.02;0.73;;;21.40;52.60;;;;;;5105738;28;20103;-42
2021/05/08 03:21:55;;;;;;;0.77;0.73;;;21.40;52.80;;;;;;5088040;28;20104;-39
2021/05/08 03:24:21;;;;;;;0.60;0.60;;;21.40;53.00;;;;;;5085115;28;20057;-40
2021/05/08 03:26:46;;;;;;;0.50;0.50;;;21.40;52.90;;;;;;5100465;28;20027;-42
2021/05/08 03:29:12;;;;;;;0.68;0.68;;;21.40;52.90;;;;;;5103455;28;20031;-41
2021/05/08 03:31:38;;;;;;;1.05;0.95;;;21.40;53.50;;;;;;5087123;28;20608;-41
2021/05/08 03:34:03;;;;;;;0.70;0.70;;;21.30;53.00;;;;;;5104421;28;20525;-43
2021/05/08 03:36:29;;;;;;;1.08;0.50;;;21.30;52.90;;;;;;5105601;28;20096;-41
2021/05/08 03:38:55;;;;;;;1.58;0.50;;;21.30;52.90;;;;;;5103657;28;20059;-37
2021/05/08 03:41:21;;;;;;;0.85;0.63;;;21.30;53.00;;;;;;5103871;28;20035;-39
2021/05/08 03:43:47;;;;;;;0.77;0.70;;;21.20;53.80;;;;;;5106614;28;20026;-40
2021/05/08 03:46:12;;;;;;;0.80;0.68;;;21.30;53.10;;;;;;5086162;28;20488;-38
2021/05/08 03:48:38;;;;;;;0.55;0.55;;;21.40;52.90;;;;;;5081636;28;20100;-40
2021/05/08 03:51:04;;;;;;;0.93;0.90;;;21.40;52.80;;;;;;5102644;28;20015;-40
2021/05/08 03:53:29;;;;;;;1.10;0.70;;;21.50;52.50;;;;;;5102825;28;20114;-41
2021/05/08 03:55:55;;;;;;;0.63;0.47;;;21.50;52.70;;;;;;5103742;28;20550;-44
2021/05/08 03:58:27;;;;;;;0.70;0.70;;;21.40;52.60;;;;;;5105648;28;20036;-40
2021/05/08 04:00:53;;;;;;;0.60;0.60;;;21.40;52.60;;;;;;5101204;28;20099;-43
2021/05/08 04:03:18;;;;;;;0.85;0.70;;;21.30;52.80;;;;;;5110108;28;20114;-38
2021/05/08 04:05:44;;;;;;;1.00;0.90;;;21.40;52.80;;;;;;5105841;28;20055;-36
2021/05/08 04:08:10;;;;;;;1.52;0.70;;;21.40;53.30;;;;;;5101642;28;20035;-42
2021/05/08 04:10:35;;;;;;;1.30;0.80;;;21.40;52.90;;;;;;5111370;28;20031;-37
2021/05/08 04:13:01;;;;;;;1.33;0.60;;;21.40;52.70;;;;;;5097673;28;20020;-38
2021/05/08 04:15:26;;;;;;;0.65;0.60;;;21.30;52.80;;;;;;5105759;28;20032;-40
2021/05/08 04:17:52;;;;;;;1.45;0.70;;;21.40;52.50;;;;;;5106169;28;20061;-39
2021/05/08 04:20:17;;;;;;;0.60;0.60;;;21.40;52.50;;;;;;5097917;28;20389;-39
2021/05/08 04:22:43;;;;;;;1.15;0.80;;;21.40;52.70;;;;;;5085036;28;20026;-41
2021/05/08 04:25:09;;;;;;;0.60;0.60;;;21.40;52.70;;;;;;5103693;28;20030;-40
2021/05/08 04:27:34;;;;;;;1.52;0.80;;;21.40;52.70;;;;;;5098509;28;20035;-42
2021/05/08 04:30:00;;;;;;;1.95;0.68;;;21.40;52.70;;;;;;5101643;28;20031;-43
2021/05/08 04:32:25;;;;;;;0.70;0.70;;;21.40;52.70;;;;;;5100245;28;20027;-42
2021/05/08 04:34:51;;;;;;;1.20;0.95;;;21.40;52.60;;;;;;5102683;28;20516;-41
2021/05/08 04:37:17;;;;;;;0.80;0.80;;;21.30;52.80;;;;;;5101863;28;20040;-38
2021/05/08 04:39:42;;;;;;;0.70;0.70;;;21.30;53.00;;;;;;5102800;28;20069;-46
2021/05/08 04:42:08;;;;;;;0.93;0.75;;;21.30;53.00;;;;;;5081257;28;20112;-46
2021/05/08 04:44:33;;;;;;;0.98;0.82;;;21.20;53.20;;;;;;5097775;28;20028;-42
2021/05/08 04:46:59;;;;;;;0.70;0.63;;;21.10;54.10;;;;;;5099741;28;20445;-42
2021/05/08 04:49:24;;;;;;;0.60;0.60;;;21.20;53.40;;;;;;5105256;28;20020;-41
2021/05/08 04:51:53;;;;;;;0.75;0.70;;;21.20;53.20;;;;;;5105106;28;20024;-40
2021/05/08 04:54:19;;;;;;;1.05;0.73;;;21.20;53.80;;;;;;5104159;28;20024;-40
2021/05/08 04:56:45;;;;;;;0.93;0.70;;;21.20;53.30;;;;;;5101357;28;20050;-43
2021/05/08 04:59:10;;;;;;;1.25;0.75;;;21.10;53.40;;;;;;5101797;28;20149;-42
2021/05/08 05:01:36;;;;;;;0.98;0.88;;;21.10;53.50;;;;;;5101621;28;20569;-43
2021/05/08 05:04:01;;;;;;;0.93;0.80;;;21.00;53.80;;;;;;5105207;28;20023;-40
2021/05/08 05:06:27;;;;;;;0.88;0.88;;;21.00;53.90;;;;;;5104731;28;20020;-42
2021/05/08 05:08:53;;;;;;;0.70;0.70;;;21.00;53.70;;;;;;5104960;28;20386;-43
2021/05/08 05:11:21;;;;;;;1.02;0.90;;;21.00;53.70;;;;;;5101085;28;20038;-38
2021/05/08 05:13:47;;;;;;;1.42;0.90;;;21.00;54.10;;;;;;5102581;28;20031;-40
2021/05/08 05:16:12;;;;;;;0.68;0.68;;;21.00;53.80;;;;;;5101371;28;20026;-42
2021/05/08 05:18:38;;;;;;;0.65;0.65;;;21.00;54.00;;;;;;5102724;28;20027;-36
2021/05/08 05:21:04;;;;;;;1.23;0.93;;;20.90;54.00;;;;;;5105454;28;20027;-42
2021/05/08 05:23:29;;;;;;;1.20;0.70;;;21.00;53.90;;;;;;5101817;28;20035;-38
2021/05/08 05:25:55;;;;;;;0.75;0.60;;;20.90;54.00;;;;;;5102159;28;20032;-42
2021/05/08 05:28:28;;;;;;;1.00;0.90;;;21.00;53.70;;;;;;5100662;28;20036;-40
2021/05/08 05:30:54;;;;;;;1.02;0.80;;;21.00;53.70;;;;;;5106221;28;20119;-37
2021/05/08 05:33:20;;;;;;;0.70;0.57;;;21.00;53.90;;;;;;5070852;28;20150;-40
2021/05/08 05:35:49;;;;;;;0.75;0.75;;;21.10;53.80;;;;;;5107860;28;20028;-45
2021/05/08 05:38:15;;;;;;;1.13;1.00;;;21.00;53.80;;;;;;5098688;28;20055;-43
2021/05/08 05:40:40;;;;;;;1.10;0.90;;;21.00;53.90;;;;;;5102834;28;20028;-40
2021/05/08 05:43:06;;;;;;;0.75;0.75;;;21.10;53.80;;;;;;5100073;28;20822;-40
2021/05/08 05:45:31;;;;;;;0.73;0.73;;;21.10;53.60;;;;;;5103120;28;20024;-44
2021/05/08 05:48:02;;;;;;;0.95;0.68;;;21.10;53.70;;;;;;5103386;28;20462;-40
2021/05/08 05:50:27;;;;;;;0.88;0.77;;;21.10;53.80;;;;;;5064296;28;20047;-40
2021/05/08 05:52:53;;;;;;;1.25;0.80;;;21.10;53.80;;;;;;5107023;28;20489;-42
2021/05/08 05:55:20;;;;;;;0.60;0.60;;;21.10;53.80;;;;;;5107688;28;20077;-40
2021/05/08 05:57:46;;;;;;;0.82;0.70;;;21.10;53.70;;;;;;5090126;28;20442;-40
2021/05/08 06:00:12;;;;;;;0.80;0.70;;;21.20;53.60;;;;;;5090152;28;20062;-44
2021/05/08 06:02:38;;;;;;;1.10;0.85;;;21.20;53.30;;;;;;5108316;28;20030;-38
2021/05/08 06:05:04;;;;;;;0.77;0.70;;;21.10;53.60;;;;;;5108548;28;20070;-39
2021/05/08 06:07:29;;;;;;;1.35;1.25;;;21.10;53.80;;;;;;5091571;28;20039;-44
2021/05/08 06:09:55;;;;;;;0.77;0.63;;;21.10;53.90;;;;;;5108237;28;20027;-39
2021/05/08 06:12:20;;;;;;;1.00;0.90;;;21.00;54.60;;;;;;5107884;28;20497;-42
2021/05/08 06:14:46;;;;;;;1.00;0.70;;;21.10;53.70;;;;;;5108291;28;20458;-41
2021/05/08 06:17:12;;;;;;;0.77;0.70;;;21.20;53.60;;;;;;5111783;28;20028;-42
2021/05/08 06:19:37;;;;;;;0.77;0.70;;;21.20;53.70;;;;;;5114004;28;20031;-39
2021/05/08 06:22:03;;;;;;;0.82;0.73;;;21.10;53.80;;;;;;5112023;28;20094;-42
2021/05/08 06:24:28;;;;;;;1.25;1.15;;;21.20;53.70;;;;;;5111717;28;20015;-40
2021/05/08 06:26:54;;;;;;;0.63;0.63;;;21.10;53.70;;;;;;5112205;28;20080;-37
2021/05/08 06:29:19;;;;;;;0.73;0.70;;;21.20;53.70;;;;;;5111235;28;20039;-41
2021/05/08 06:31:45;;;;;;;0.80;0.63;;;21.20;53.80;;;;;;5113737;28;20028;-43
2021/05/08 06:34:10;;;;;;;0.73;0.70;;;21.20;53.80;;;;;;5111947;28;20027;-41
2021/05/08 06:36:36;;;;;;;0.82;0.80;;;21.10;54.20;;;;;;5112153;28;20494;-41
2021/05/08 06:39:02;;;;;;;1.73;0.70;;;21.10;54.00;;;;;;5111552;28;20456;-37
2021/05/08 06:41:27;;;;;;;0.70;0.70;;;21.10;54.20;;;;;;5111141;28;20102;-42
2021/05/08 06:43:53;;;;;;;0.70;0.70;;;21.00;54.30;;;;;;5113424;28;20026;-41
2021/05/08 06:46:19;;;;;;;1.15;0.77;;;21.00;54.30;;;;;;5110823;28;20032;-39
2021/05/08 06:48:44;;;;;;;0.70;0.70;;;21.00;54.40;;;;;;5090140;28;20164;-41
2021/05/08 06:51:10;;;;;;;1.17;0.60;;;21.00;54.60;;;;;;5108239;28;20039;-39
2021/05/08 06:53:35;;;;;;;1.95;0.60;;;21.10;54.90;;;;;;5110338;28;20031;-42
2021/05/08 06:56:01;;;;;;;0.60;0.60;;;21.10;54.10;;;;;;5111838;28;20024;-41
2021/05/08 06:58:27;;;;;;;0.95;0.60;;;21.20;54.10;;;;;;5112729;28;20028;-40
2021/05/08 07:00:53;;;;;;;0.70;0.70;;;21.20;53.70;;;;;;5111323;28;20023;-39
2021/05/08 07:03:18;;;;;;;0.70;0.70;;;21.10;54.60;;;;;;5110744;28;20532;-42
2021/05/08 07:05:44;;;;;;;0.50;0.50;;;21.10;54.80;;;;;;5092577;28;20441;-47
2021/05/08 07:08:11;;;;;;;0.75;0.75;;;21.20;54.40;;;;;;5106347;28;20036;-44
2021/05/08 07:10:44;;;;;;;0.60;0.60;;;21.20;54.90;;;;;;5112645;28;20031;-43
2021/05/08 07:13:10;;;;;;;1.02;0.70;;;21.20;54.80;;;;;;5089072;28;20046;-41
2021/05/08 07:15:35;;;;;;;2.15;0.90;;;21.30;54.80;;;;;;5104958;28;20633;-49
2021/05/08 07:18:02;;;;;;;0.85;0.85;;;21.20;54.50;;;;;;5109000;28;20027;-42
2021/05/08 07:20:27;;;;;;;1.30;0.75;;;21.10;55.00;;;;;;5107556;28;20028;-43
2021/05/08 07:22:53;;;;;;;0.80;0.70;;;21.20;55.10;;;;;;5097317;28;20406;-40
2021/05/08 07:25:18;;;;;;;0.73;0.70;;;21.10;55.20;;;;;;4741512;28;10000515;-47
2021/05/08 07:27:44;;;;;;;1.15;0.80;;;21.20;55.10;;;;;;5100468;28;20599;-43
2021/05/08 07:30:10;;;;;;;0.93;0.70;;;21.10;55.00;;;;;;5104173;28;20032;-44
2021/05/08 07:32:36;;;;;;;1.10;0.88;;;21.10;55.20;;;;;;5099416;28;20023;-44
2021/05/08 07:35:01;;;;;;;1.85;0.80;;;21.10;55.10;;;;;;5081535;28;20030;-44
2021/05/08 07:37:27;;;;;;;5.80;0.80;;;21.20;55.30;;;;;;5104640;28;20063;-43
2021/05/08 07:39:52;;;;;;;0.88;0.70;;;21.20;55.10;;;;;;5084322;28;20393;-44
2021/05/08 07:42:18;;;;;;;1.83;0.52;;;21.20;55.00;;;;;;5103749;28;20038;-41
2021/05/08 07:44:43;;;;;;;1.02;0.80;;;21.30;54.80;;;;;;5094716;28;20032;-44
2021/05/08 07:47:13;;;;;;;1.42;0.65;;;21.30;54.80;;;;;;5079293;28;20038;-43
2021/05/08 07:49:39;;;;;;;0.75;0.60;;;21.30;55.00;;;;;;5098499;28;20028;-43
2021/05/08 07:52:04;;;;;;;0.82;0.60;;;21.40;54.70;;;;;;5093633;28;20089;-48
2021/05/08 07:54:30;;;;;;;1.15;0.93;;;21.40;54.90;;;;;;5099707;28;20028;-43
2021/05/08 07:56:56;;;;;;;1.15;0.95;;;21.40;54.80;;;;;;5074950;28;20451;-43
2021/05/08 07:59:21;;;;;;;1.60;0.80;;;21.30;54.90;;;;;;5099405;28;20054;-42
2021/05/08 08:01:47;;;;;;;1.27;0.75;;;21.30;55.00;;;;;;5098770;28;20552;-40
2021/05/08 08:04:12;;;;;;;1.02;0.55;;;21.40;55.20;;;;;;5101672;28;20032;-42
2021/05/08 08:06:38;;;;;;;1.13;0.93;;;21.40;54.80;;;;;;5102383;28;20032;-42
2021/05/08 08:09:04;;;;;;;2.35;0.73;;;21.50;54.60;;;;;;5101711;28;20094;-46
2021/05/08 08:11:31;;;;;;;1.05;0.63;;;21.70;54.30;;;;;;5101411;28;20031;-43
2021/05/08 08:13:56;;;;;;;2.55;0.52;;;21.60;54.30;;;;;;5080675;28;20032;-45
2021/05/08 08:16:22;;;;;;;1.30;0.80;;;21.50;54.40;;;;;;5098853;28;20036;-43
2021/05/08 08:18:47;;;;;;;2.78;0.95;;;21.60;54.90;;;;;;5098117;28;20396;-43
2021/05/08 08:21:13;;;;;;;1.13;0.70;;;21.60;54.90;;;;;;5097603;28;20031;-40
2021/05/08 08:23:38;;;;;;;1.08;0.90;;;21.60;54.70;;;;;;5091764;28;20024;-41
2021/05/08 08:26:04;;;;;;;3.28;0.90;;;21.40;55.30;;;;;;5094704;28;20469;-43
2021/05/08 08:28:29;;;;;;;3.15;0.88;;;21.50;55.60;;;;;;5094838;28;20116;-45
2021/05/08 08:30:55;;;;;;;2.67;1.60;;;21.70;55.00;;;;;;5094611;28;20513;-47
2021/05/08 08:33:21;;;;;;;2.33;1.50;;;21.70;55.00;;;;;;5092675;28;20408;-48
2021/05/08 08:35:47;;;;;;;6.38;3.47;;;21.90;54.90;;;;;;5089018;28;20032;-48
2021/05/08 08:38:13;;;;;;;26.15;10.65;;;21.90;54.60;;;;;;5087078;28;20466;-45
2021/05/08 08:40:39;;;;;;;38.83;15.32;;;21.80;54.80;;;;;;5092272;28;20059;-45
2021/05/08 08:43:05;;;;;;;69.22;27.98;;;21.80;54.60;;;;;;5089937;28;20525;-48
2021/05/08 08:45:32;;;;;;;40.67;17.90;;;21.80;54.60;;;;;;5086442;28;20016;-46
2021/05/08 08:47:57;;;;;;;43.97;20.80;;;21.90;54.60;;;;;;5089554;28;20039;-43
2021/05/08 08:50:24;;;;;;;65.82;26.50;;;22.00;54.70;;;;;;5068116;28;20081;-43
2021/05/08 08:52:49;;;;;;;59.10;26.15;;;22.10;54.30;;;;;;5067359;28;20067;-45
2021/05/08 08:55:15;;;;;;;128.55;52.45;;;22.10;54.20;;;;;;5085321;28;20467;-46
2021/05/08 08:57:45;;;;;;;119.72;49.78;;;22.10;54.40;;;;;;5068383;28;20081;-44
2021/05/08 09:00:15;;;;;;;139.68;61.38;;;22.10;54.40;;;;;;5071442;28;20028;-45
2021/05/08 09:02:48;;;;;;;153.48;62.58;;;22.00;54.80;;;;;;5087095;28;20023;-43
2021/05/08 09:05:17;;;;;;;125.10;52.75;;;21.80;55.10;;;;;;5086091;28;20020;-42
2021/05/08 09:07:47;;;;;;;141.55;58.72;;;21.90;55.30;;;;;;5090468;28;20106;-42
2021/05/08 09:10:22;;;;;;;127.35;56.13;;;21.80;55.30;;;;;;5085084;28;20043;-46
2021/05/08 09:12:48;;;;;;;128.20;55.38;;;21.90;55.20;;;;;;5088316;28;20028;-44
2021/05/08 09:15:13;;;;;;;117.63;52.70;;;21.80;55.10;;;;;;5086500;28;20035;-48
2021/05/08 09:17:44;;;;;;;119.10;51.78;;;21.80;55.10;;;;;;5090944;28;20080;-49
2021/05/08 09:20:10;;;;;;;118.85;52.10;;;21.80;55.40;;;;;;5060071;28;20056;-48
2021/05/08 09:22:37;;;;;;;119.88;53.53;;;21.80;55.20;;;;;;5074817;28;20058;-45
2021/05/08 09:25:15;;;;;;;110.88;50.28;;;21.80;55.10;;;;;;5076618;28;20032;-45
2021/05/08 09:27:44;;;;;;;105.70;48.15;;;21.90;55.10;;;;;;5073876;28;20800;-44
2021/05/08 09:30:10;;;;;;;107.32;47.92;;;21.90;55.10;;;;;;5073431;28;20032;-47
2021/05/08 09:32:40;;;;;;;108.78;48.90;;;21.90;54.90;;;;;;5091015;28;20043;-38
2021/05/08 09:35:10;;;;;;;111.60;48.05;;;22.00;55.00;;;;;;5089555;28;20032;-45
2021/05/08 09:37:36;;;;;;;108.78;46.65;;;22.00;54.90;;;;;;5066781;28;20127;-42
2021/05/08 09:40:13;;;;;;;100.43;44.13;;;22.00;55.20;;;;;;5054899;28;20119;-45
2021/05/08 09:42:45;;;;;;;96.95;42.55;;;22.00;55.00;;;;;;5077622;28;20023;-42
2021/05/08 09:45:12;;;;;;;78.38;38.38;;;22.00;55.20;;;;;;5089181;28;20030;-40
2021/05/08 09:47:38;;;;;;;81.75;37.35;;;21.90;55.50;;;;;;5084970;28;20032;-45
2021/05/08 09:50:04;;;;;;;77.90;35.20;;;21.90;55.40;;;;;;5070777;28;20035;-44
2021/05/08 09:52:48;;;;;;;62.70;29.80;;;21.90;55.60;;;;;;5092385;28;20024;-45
2021/05/08 09:55:14;;;;;;;;;;;21.90;55.60;;;;;;5096813;28;20028;-42
2021/05/08 09:57:39;;;;;;;66.40;31.40;;;21.90;55.70;;;;;;5095143;28;19911;-46
2021/05/08 10:00:26;;;;;;;57.17;28.27;;;21.90;55.60;;;;;;5093802;28;20024;-45
2021/05/08 10:03:01;;;;;;;68.28;30.73;;;21.80;56.00;;;;;;5077992;28;20729;-48
2021/05/08 10:05:27;;;;;;;61.22;28.60;;;21.80;55.60;;;;;;5080392;28;20036;-47
2021/05/08 10:07:53;;;;;;;60.97;29.08;;;21.80;55.60;;;;;;5076566;28;20035;-47
2021/05/08 10:10:19;;;;;;;59.92;28.27;;;21.90;55.60;;;;;;5100044;28;20471;-44
2021/05/08 10:12:44;;;;;;;55.25;27.35;;;21.90;55.50;;;;;;5097069;28;20028;-44
2021/05/08 10:15:10;;;;;;;62.88;29.30;;;21.90;55.50;;;;;;5058592;28;20027;-46
2021/05/08 10:17:37;;;;;;;55.83;25.75;;;21.90;55.40;;;;;;5071991;28;20525;-47
2021/05/08 10:20:09;;;;;;;47.60;24.20;;;21.90;55.50;;;;;;5079966;28;20070;-47
2021/05/08 10:22:42;;;;;;;40.30;20.58;;;22.00;55.50;;;;;;5090797;28;20039;-46
2021/05/08 10:25:08;;;;;;;50.03;22.63;;;22.00;55.40;;;;;;5094305;28;20028;-50
2021/05/08 10:27:34;;;;;;;49.00;23.52;;;22.10;55.10;;;;;;5057599;28;20066;-46
2021/05/08 10:29:59;;;;;;;33.08;17.55;;;22.00;55.20;;;;;;5076705;28;20506;-42
2021/05/08 10:32:25;;;;;;;34.60;17.95;;;22.10;55.10;;;;;;5092331;28;20073;-47
2021/05/08 10:34:52;;;;;;;38.45;18.17;;;22.30;54.50;;;;;;5057377;28;20130;-46
2021/05/08 10:37:18;;;;;;;34.30;17.05;;;22.20;54.80;;;;;;4731298;28;10000682;-50
2021/05/08 10:39:54;;;;;;;33.22;16.50;;;22.30;54.40;;;;;;5059713;28;20376;-45
2021/05/08 10:42:35;;;;;;;30.40;15.85;;;22.60;53.80;;;;;;5081254;28;20027;-48
2021/05/08 10:45:05;;;;;;;32.42;17.00;;;22.80;53.30;;;;;;5094292;28;20516;-45
2021/05/08 10:47:52;;;;;;;36.22;17.38;;;22.90;53.00;;;;;;5075825;28;20043;-47
2021/05/08 10:50:27;;;;;;;36.70;19.77;;;23.00;52.80;;;;;;5090409;28;20035;-43
2021/05/08 10:52:58;;;;;;;39.80;20.00;;;23.00;52.60;;;;;;5089514;28;20032;-44
2021/05/08 10:55:24;;;;;;;42.95;20.90;;;23.00;52.50;;;;;;5084268;28;20028;-47
2021/05/08 10:58:20;;;;;;;41.30;21.60;;;22.90;53.40;;;;;;5072963;28;20039;-48
2021/05/08 11:00:52;;;;;;;46.17;21.23;;;22.70;54.20;;;;;;5097182;28;20032;-46
2021/05/08 11:03:19;;;;;;;42.95;21.05;;;22.50;54.70;;;;;;5059547;28;20032;-48
2021/05/08 11:05:52;;;;;;;39.42;19.73;;;22.40;55.40;;;;;;5073921;28;20510;-45
2021/05/08 11:08:27;;;;;;;39.30;18.60;;;22.50;54.90;;;;;;5086637;28;20121;-47
2021/05/08 11:11:15;;;;;;;39.55;19.77;;;22.40;55.40;;;;;;5089842;28;20744;-46
2021/05/08 11:13:41;;;;;;;39.05;19.48;;;22.50;55.20;;;;;;5085774;28;20032;-47
2021/05/08 11:16:19;;;;;;;36.60;18.00;;;22.50;55.10;;;;;;5069677;28;20669;-46
2021/05/08 11:18:45;;;;;;;34.55;16.63;;;22.60;55.20;;;;;;5084599;28;20320;-46
2021/05/08 11:21:11;;;;;;;31.00;15.40;;;22.60;55.10;;;;;;5075676;28;20143;-47
2021/05/08 11:23:46;;;;;;;33.53;16.42;;;22.70;55.10;;;;;;5094306;28;20556;-47
2021/05/08 11:26:30;;;;;;;31.67;15.45;;;22.60;55.50;;;;;;5090283;28;20486;-46
2021/05/08 11:29:00;;;;;;;28.83;14.98;;;22.60;55.20;;;;;;5077508;28;20116;-45
2021/05/08 11:31:42;;;;;;;30.20;15.77;;;22.60;54.80;;;;;;5087293;28;20643;-46
2021/05/08 11:34:15;;;;;;;28.80;15.02;;;22.60;55.10;;;;;;5089353;28;20040;-44
2021/05/08 11:36:47;;;;;;;31.63;14.80;;;22.60;55.00;;;;;;5083355;28;20031;-46
2021/05/08 11:39:20;;;;;;;27.48;15.75;;;22.60;55.10;;;;;;5083010;28;20105;-43
2021/05/08 11:41:46;;;;;;;32.40;16.13;;;22.60;55.00;;;;;;5086693;28;20694;-45
2021/05/08 11:44:19;;;;;;;24.67;15.07;;;22.60;55.30;;;;;;5073662;28;20032;-46
2021/05/08 11:46:53;;;;;;;22.83;13.73;;;22.50;55.40;;;;;;5088338;28;20036;-49
2021/05/08 11:49:32;;;;;;;27.10;14.63;;;22.50;55.80;;;;;;5088196;28;20442;-43
2021/05/08 11:51:58;;;;;;;24.00;13.45;;;22.50;55.40;;;;;;5092354;28;20066;-45
2021/05/08 11:54:25;;;;;;;25.23;13.02;;;22.50;55.60;;;;;;5095099;28;20382;-46
2021/05/08 11:56:51;;;;;;;26.35;13.50;;;22.60;55.30;;;;;;5067903;28;20516;-43
2021/05/08 11:59:31;;;;;;;22.67;12.73;;;22.60;54.80;;;;;;5086364;28;20064;-43
2021/05/08 12:02:17;;;;;;;23.20;12.23;;;22.70;54.70;;;;;;5056726;28;20590;-44
2021/05/08 12:04:52;;;;;;;20.75;11.70;;;22.70;54.70;;;;;;5075037;28;20028;-44
2021/05/08 12:07:29;;;;;;;19.45;12.75;;;22.90;54.00;;;;;;5089436;28;20097;-42
2021/05/08 12:10:18;;;;;;;17.95;11.68;;;23.00;53.90;;;;;;5077239;28;20052;-44
2021/05/08 12:12:50;;;;;;;20.58;12.10;;;23.10;53.20;;;;;;5088331;28;20505;-44
2021/05/08 12:15:20;;;;;;;21.75;11.60;;;23.10;52.90;;;;;;5052488;28;20028;-44
2021/05/08 12:17:46;;;;;;;17.50;10.85;;;23.00;53.50;;;;;;5074223;28;20135;-43
2021/05/08 12:20:12;;;;;;;17.20;10.98;;;23.20;53.10;;;;;;5071676;28;20141;-44
2021/05/08 12:22:37;;;;;;;20.88;11.93;;;23.30;52.70;;;;;;5086881;28;20522;-43
2021/05/08 12:25:12;;;;;;;16.90;11.43;;;23.30;53.50;;;;;;5047957;28;20052;-44
2021/05/08 12:27:37;;;;;;;17.88;11.00;;;23.30;52.60;;;;;;5085246;28;20111;-44
2021/05/08 12:30:04;;;;;;;18.88;10.68;;;23.20;54.00;;;;;;5081928;28;20106;-46
2021/05/08 12:32:30;;;;;;;18.52;11.25;;;23.00;53.70;;;;;;5087671;28;20032;-46
2021/05/08 12:34:56;;;;;;;17.83;10.80;;;23.00;53.80;;;;;;5077914;28;20031;-45
2021/05/08 12:37:21;;;;;;;17.70;11.05;;;22.90;54.60;;;;;;5098603;28;20457;-53
2021/05/08 12:39:50;;;;;;;16.55;9.70;;;22.90;54.30;;;;;;5073746;28;20016;-46
2021/05/08 12:42:16;;;;;;;15.43;9.93;;;22.80;54.30;;;;;;5077422;28;20040;-45